Time;durP1;ratioP1;P1;durP2;ratioP2;P2;SDS_P1;SDS_P2;PMS_P1;PMS_P2;Temp;Humidity;BMP_temperature;BMP_pressure;BME280_temperature;BME280_humidity;BME280_pressure;Samples;Min_cycle;Max_cycle;Signal;HPM_P1;HPM_P2
2022/08/14 00:01:44;;;;;;;4.25;2.97;;;15.30;99.90;;;;;;5084429;28;20040;-50
2022/08/14 00:04:22;;;;;;;4.00;3.10;;;15.30;99.90;;;;;;5105941;28;20043;-51
2022/08/14 00:07:05;;;;;;;5.43;3.83;;;15.20;99.90;;;;;;5110761;28;20036;-48
2022/08/14 00:09:34;;;;;;;4.53;3.75;;;15.10;99.90;;;;;;5098833;28;20424;-51
2022/08/14 00:12:22;;;;;;;5.57;3.63;;;14.90;99.90;;;;;;5103081;28;20044;-50
2022/08/14 00:14:51;;;;;;;10.23;4.47;;;14.70;99.90;;;;;;5106020;28;20040;-48
2022/08/14 00:17:21;;;;;;;10.30;4.88;;;14.50;99.90;;;;;;5109398;27;20122;-52
2022/08/14 00:19:48;;;;;;;;;;;14.50;99.90;;;;;;5096799;28;20044;-51
2022/08/14 00:22:18;;;;;;;4.78;3.65;;;14.40;99.90;;;;;;5107281;28;19973;-50
2022/08/14 00:25:07;;;;;;;6.40;4.07;;;14.40;99.90;;;;;;5111918;27;20579;-48
2022/08/14 00:27:36;;;;;;;7.18;4.97;;;14.30;99.90;;;;;;5086107;28;20055;-52
2022/08/14 00:30:08;;;;;;;6.68;4.90;;;14.30;99.90;;;;;;5111774;27;20461;-50
2022/08/14 00:32:37;;;;;;;7.47;4.40;;;14.20;99.90;;;;;;5106738;27;20416;-50
2022/08/14 00:35:22;;;;;;;4.47;3.83;;;14.20;99.90;;;;;;5100091;28;20127;-51
2022/08/14 00:38:08;;;;;;;4.20;3.42;;;14.20;99.90;;;;;;5107425;28;20056;-49
2022/08/14 00:40:35;;;;;;;5.03;3.90;;;14.10;99.90;;;;;;5109760;28;20050;-50
2022/08/14 00:43:02;;;;;;;4.35;3.35;;;14.10;99.90;;;;;;5106348;27;20035;-51
2022/08/14 00:45:30;;;;;;;7.53;3.80;;;14.10;99.90;;;;;;5097275;28;20159;-48
2022/08/14 00:47:57;;;;;;;5.03;3.63;;;14.20;99.90;;;;;;5111800;27;20051;-50
2022/08/14 00:50:29;;;;;;;5.63;3.60;;;14.20;99.90;;;;;;5111057;28;20039;-51
2022/08/14 00:52:58;;;;;;;6.07;3.78;;;14.20;99.90;;;;;;5096589;28;20048;-48
2022/08/14 00:55:27;;;;;;;4.55;3.22;;;14.20;99.90;;;;;;5103048;28;20047;-48
2022/08/14 01:00:45;;;;;;;4.18;3.22;;;14.20;99.90;;;;;;5107288;28;20043;-50
2022/08/14 01:03:24;;;;;;;6.38;4.20;;;14.20;99.90;;;;;;5099580;28;20769;-50
2022/08/14 01:05:51;;;;;;;5.75;3.75;;;14.20;99.90;;;;;;5108202;28;20047;-49
2022/08/14 01:08:29;;;;;;;4.68;3.88;;;14.20;99.90;;;;;;5104288;28;20032;-49
2022/08/14 01:11:16;;;;;;;4.70;3.15;;;14.20;99.90;;;;;;5111199;28;20063;-48
2022/08/14 01:13:46;;;;;;;5.80;3.97;;;14.10;99.90;;;;;;5102572;28;20568;-50
2022/08/14 01:16:29;;;;;;;5.35;3.90;;;14.10;99.90;;;;;;5110534;28;20572;-50
2022/08/14 01:21:46;;;;;;;4.53;3.58;;;14.00;99.90;;;;;;5102825;28;20038;-49
2022/08/14 01:24:20;;;;;;;4.97;3.60;;;14.00;99.90;;;;;;5111853;28;20114;-48
2022/08/14 01:27:00;;;;;;;5.28;3.88;;;14.00;99.90;;;;;;5111517;28;20071;-52
2022/08/14 01:29:28;;;;;;;;;;;13.90;99.90;;;;;;5111849;28;20039;-51
2022/08/14 01:32:20;;;;;;;4.25;3.63;;;13.90;99.90;;;;;;5090754;28;19951;-49
2022/08/14 01:34:55;;;;;;;4.78;3.85;;;13.90;99.90;;;;;;5091362;28;20044;-51
2022/08/14 01:37:47;;;;;;;5.03;4.15;;;13.90;99.90;;;;;;5105567;28;20096;-52
2022/08/14 01:40:27;;;;;;;6.22;4.25;;;13.90;99.90;;;;;;5090754;28;20043;-49
2022/08/14 01:43:16;;;;;;;4.28;3.78;;;13.80;99.90;;;;;;5091399;28;20048;-51
2022/08/14 01:45:50;;;;;;;8.60;3.78;;;13.80;99.90;;;;;;5108313;28;20036;-51
2022/08/14 01:48:33;;;;;;;5.72;3.97;;;13.80;99.90;;;;;;5106007;28;20091;-49
2022/08/14 01:51:04;;;;;;;6.00;3.92;;;13.70;99.90;;;;;;5111181;28;20140;-48
2022/08/14 01:53:47;;;;;;;6.53;4.03;;;13.70;99.90;;;;;;5104763;28;20121;-49
2022/08/14 01:56:32;;;;;;;6.00;4.15;;;13.70;99.90;;;;;;5090919;28;20055;-53
2022/08/14 01:59:08;;;;;;;4.85;4.00;;;13.70;99.90;;;;;;5092440;28;20044;-53
2022/08/14 02:01:45;;;;;;;6.00;3.83;;;13.70;99.90;;;;;;5095245;27;20493;-48
2022/08/14 02:04:29;;;;;;;7.38;3.75;;;13.70;99.90;;;;;;5103396;28;20085;-49
2022/08/14 02:07:17;;;;;;;4.85;3.80;;;13.70;99.90;;;;;;5094898;28;20040;-52
2022/08/14 02:10:05;;;;;;;6.25;4.10;;;13.70;99.90;;;;;;5097215;27;20148;-50
2022/08/14 02:12:32;;;;;;;5.60;4.28;;;13.60;99.90;;;;;;5108486;28;20032;-49
2022/08/14 02:15:00;;;;;;;9.93;4.28;;;13.60;99.90;;;;;;5113699;28;20040;-49
2022/08/14 02:17:31;;;;;;;5.53;4.55;;;13.50;99.90;;;;;;5114962;28;20048;-52
2022/08/14 02:19:58;;;;;;;7.88;4.10;;;13.40;99.90;;;;;;5112328;28;20515;-50
2022/08/14 02:22:25;;;;;;;4.75;3.78;;;13.20;99.90;;;;;;5108720;28;20442;-51
2022/08/14 02:25:12;;;;;;;5.90;4.22;;;13.00;99.90;;;;;;5115151;28;20448;-51
2022/08/14 02:27:44;;;;;;;5.93;3.97;;;13.10;99.90;;;;;;5109688;27;20504;-49
2022/08/14 02:30:32;;;;;;;6.05;3.85;;;13.10;99.90;;;;;;5109047;28;20051;-50
2022/08/14 02:33:00;;;;;;;5.15;3.85;;;13.10;99.90;;;;;;5115044;28;20053;-48
2022/08/14 02:35:27;;;;;;;6.00;4.32;;;13.10;99.90;;;;;;5114802;27;20040;-49
2022/08/14 02:37:58;;;;;;;5.40;4.35;;;13.10;99.90;;;;;;5106311;28;20040;-52
2022/08/14 02:40:30;;;;;;;10.23;4.40;;;13.10;99.90;;;;;;5114240;28;20119;-49
2022/08/14 02:43:00;;;;;;;4.68;3.80;;;13.10;99.90;;;;;;5114568;27;20050;-50
2022/08/14 02:45:33;;;;;;;5.82;3.78;;;13.20;99.90;;;;;;5108445;28;20503;-52
2022/08/14 02:48:11;;;;;;;8.82;4.53;;;13.20;99.90;;;;;;5114545;28;20454;-49
2022/08/14 02:50:59;;;;;;;6.20;4.88;;;13.20;99.90;;;;;;5114163;27;20067;-49
2022/08/14 02:53:27;;;;;;;7.13;5.50;;;13.20;99.90;;;;;;5108823;28;20052;-50
2022/08/14 02:55:55;;;;;;;8.65;5.22;;;13.20;99.90;;;;;;5094129;28;20051;-49
2022/08/14 02:58:38;;;;;;;6.68;5.07;;;13.20;99.90;;;;;;5114399;28;20051;-49
2022/08/14 03:01:08;;;;;;;5.18;4.68;;;13.20;99.90;;;;;;5103910;28;20039;-50
2022/08/14 03:03:36;;;;;;;5.13;4.03;;;13.10;99.90;;;;;;5109274;28;20097;-52
2022/08/14 03:06:06;;;;;;;7.03;4.80;;;13.10;99.90;;;;;;5114588;28;20047;-51
2022/08/14 03:08:36;;;;;;;7.75;5.50;;;13.00;99.90;;;;;;5091807;28;20060;-50
2022/08/14 03:11:06;;;;;;;9.05;5.35;;;12.90;99.90;;;;;;5103635;28;20054;-48
2022/08/14 03:13:42;;;;;;;9.32;5.38;;;12.90;99.90;;;;;;5114077;28;20242;-50
2022/08/14 03:16:18;;;;;;;7.78;5.50;;;12.80;99.90;;;;;;5114215;28;20047;-50
2022/08/14 03:18:56;;;;;;;8.02;5.78;;;12.90;99.90;;;;;;5106677;27;20057;-49
2022/08/14 03:21:25;;;;;;;7.82;5.72;;;13.00;99.90;;;;;;5105186;28;20044;-51
2022/08/14 03:26:27;;;;;;;6.80;5.43;;;13.00;99.90;;;;;;5112331;28;20048;-53
2022/08/14 03:28:57;;;;;;;7.20;5.30;;;13.00;99.90;;;;;;5103287;28;20043;-48
2022/08/14 03:31:27;;;;;;;6.47;5.22;;;13.00;99.90;;;;;;5113607;28;20543;-50
2022/08/14 03:33:56;;;;;;;7.88;4.50;;;13.00;99.90;;;;;;5113425;28;20515;-52
2022/08/14 03:36:26;;;;;;;7.25;4.82;;;12.90;99.90;;;;;;5108000;28;20040;-51
2022/08/14 03:39:39;;;;;;;5.95;4.47;;;12.80;99.90;;;;;;5116622;22;20048;-51
2022/08/14 03:42:45;;;;;;;;;;;;;;;;;;;;;
2022/08/14 03:45:40;;;;;;;8.15;4.80;;;12.70;99.90;;;;;;5091797;28;20032;-48
2022/08/14 03:48:19;;;;;;;6.05;4.45;;;12.70;99.90;;;;;;5116695;27;20092;-52
2022/08/14 03:50:56;;;;;;;5.47;4.25;;;12.70;99.90;;;;;;5113534;27;20047;-49
2022/08/14 03:53:25;;;;;;;5.68;4.82;;;12.60;99.90;;;;;;5106990;28;20048;-51
2022/08/14 03:55:54;;;;;;;;;;;12.60;99.90;;;;;;5114212;27;20044;-50
2022/08/14 03:58:22;;;;;;;5.40;4.30;;;12.60;99.90;;;;;;5125317;27;20005;-52
2022/08/14 04:01:03;;;;;;;5.97;4.72;;;12.60;99.90;;;;;;5133578;27;20061;-49
2022/08/14 04:03:32;;;;;;;9.20;4.32;;;12.60;99.90;;;;;;5131444;27;20114;-49
2022/08/14 04:06:03;;;;;;;5.18;4.03;;;12.60;99.90;;;;;;5122928;27;20044;-52
2022/08/14 04:08:35;;;;;;;6.55;4.30;;;12.60;99.90;;;;;;5133659;27;20092;-50
2022/08/14 04:11:04;;;;;;;4.72;3.90;;;12.60;99.90;;;;;;5133275;27;20047;-49
2022/08/14 04:13:39;;;;;;;5.82;4.68;;;12.50;99.90;;;;;;5128853;27;20127;-49
2022/08/14 04:16:16;;;;;;;6.05;4.97;;;12.50;99.90;;;;;;5125175;27;20460;-49
2022/08/14 04:18:45;;;;;;;4.43;3.83;;;12.40;99.90;;;;;;5133464;27;20042;-52
2022/08/14 04:21:13;;;;;;;5.30;4.30;;;12.20;99.90;;;;;;5129276;27;20050;-51
2022/08/14 04:23:43;;;;;;;6.15;4.60;;;12.20;99.90;;;;;;5120309;27;20052;-52
2022/08/14 04:26:12;;;;;;;8.75;4.75;;;12.20;99.90;;;;;;5133071;27;20039;-53
2022/08/14 04:28:42;;;;;;;6.85;4.90;;;12.20;99.90;;;;;;5133239;27;20054;-49
2022/08/14 04:31:28;;;;;;;6.15;4.30;;;12.20;99.90;;;;;;5124555;27;20100;-52
2022/08/14 04:34:16;;;;;;;5.32;4.40;;;12.20;99.90;;;;;;5092372;28;20447;-52
2022/08/14 04:45:34;;;;;;;6.95;4.55;;;12.60;99.90;;;;;;5092047;28;20439;-48
2022/08/14 04:48:14;;;;;;;5.90;4.88;;;12.70;99.90;;;;;;5115194;27;20031;-52
2022/08/14 04:51:03;;;;;;;8.60;4.47;;;12.70;99.90;;;;;;5130990;27;20104;-51
2022/08/14 04:53:33;;;;;;;7.25;4.32;;;12.70;99.90;;;;;;5132674;27;20051;-52
2022/08/14 04:56:14;;;;;;;4.95;4.40;;;12.70;99.90;;;;;;5126118;27;20042;-51
2022/08/14 04:59:03;;;;;;;5.70;4.22;;;12.80;99.90;;;;;;5124071;27;20062;-52
2022/08/14 05:01:42;;;;;;;7.75;4.40;;;12.80;99.90;;;;;;5132353;27;20096;-50
2022/08/14 05:04:16;;;;;;;5.82;4.60;;;12.80;99.90;;;;;;5132710;27;20035;-50
2022/08/14 05:06:51;;;;;;;5.45;4.18;;;12.90;99.90;;;;;;5122714;27;20087;-52
2022/08/14 05:09:22;;;;;;;7.60;4.72;;;12.90;99.90;;;;;;5125288;27;20511;-49
2022/08/14 05:11:49;;;;;;;9.65;5.50;;;13.00;99.90;;;;;;5132186;27;20043;-50
2022/08/14 05:14:21;;;;;;;10.02;5.78;;;13.10;99.90;;;;;;5130961;27;20051;-50
2022/08/14 05:17:09;;;;;;;7.75;5.95;;;13.00;99.90;;;;;;5109104;27;20055;-49
2022/08/14 05:19:37;;;;;;;9.68;5.60;;;12.90;99.90;;;;;;5132453;27;20051;-49
2022/08/14 05:22:24;;;;;;;9.18;6.00;;;12.90;99.90;;;;;;5132568;27;20047;-51
2022/08/14 05:24:52;;;;;;;8.40;5.97;;;12.80;99.90;;;;;;5122490;27;20035;-49
2022/08/14 05:27:19;;;;;;;7.38;5.80;;;12.90;99.90;;;;;;5125109;28;20072;-49
2022/08/14 05:29:51;;;;;;;7.95;5.45;;;13.00;99.90;;;;;;5132196;28;20043;-50
2022/08/14 05:32:18;;;;;;;9.95;5.55;;;13.20;99.90;;;;;;5123390;28;20042;-50
2022/08/14 05:34:46;;;;;;;6.60;4.93;;;13.30;99.90;;;;;;5126266;27;20100;-50
2022/08/14 05:37:13;;;;;;;;;;;13.40;99.90;;;;;;5137263;27;20062;-49
2022/08/14 05:39:41;;;;;;;6.75;5.53;;;13.50;99.90;;;;;;5135391;27;20378;-51
2022/08/14 05:42:08;;;;;;;11.18;5.47;;;13.60;99.90;;;;;;5126845;27;20066;-49
2022/08/14 05:44:52;;;;;;;10.40;6.30;;;13.70;99.90;;;;;;5136631;27;20042;-49
2022/08/14 05:47:21;;;;;;;8.18;6.38;;;13.70;99.90;;;;;;5136340;27;20046;-52
2022/08/14 05:49:49;;;;;;;7.07;5.60;;;13.80;99.90;;;;;;5126314;27;20040;-49
2022/08/14 05:52:18;;;;;;;8.10;5.53;;;13.90;99.90;;;;;;5127895;27;20380;-49
2022/08/14 05:55:07;;;;;;;7.03;5.35;;;14.00;99.90;;;;;;5136428;27;20483;-49
2022/08/14 05:57:34;;;;;;;7.10;5.07;;;14.10;99.90;;;;;;5136082;27;20051;-49
2022/08/14 06:00:03;;;;;;;6.72;5.00;;;14.10;99.90;;;;;;5125500;27;20053;-50
2022/08/14 06:02:31;;;;;;;8.00;5.63;;;14.10;99.90;;;;;;5136462;27;20096;-50
2022/08/14 06:05:01;;;;;;;9.52;4.97;;;14.20;99.90;;;;;;5136185;27;20047;-50
2022/08/14 06:07:28;;;;;;;7.47;5.55;;;14.30;99.90;;;;;;5129885;27;20044;-50
2022/08/14 06:09:55;;;;;;;6.70;4.80;;;14.40;99.90;;;;;;5126764;27;20046;-48
2022/08/14 06:12:29;;;;;;;9.13;5.65;;;14.40;99.90;;;;;;5135940;27;20051;-49
2022/08/14 06:15:16;;;;;;;8.40;5.43;;;14.50;99.90;;;;;;5136094;27;20039;-51
2022/08/14 06:17:50;;;;;;;6.75;5.35;;;14.60;99.90;;;;;;5125030;27;20070;-50
2022/08/14 06:20:24;;;;;;;10.50;5.10;;;14.70;99.90;;;;;;5135270;27;20126;-49
2022/08/14 06:22:51;;;;;;;7.32;4.95;;;14.80;99.90;;;;;;5135845;27;20063;-53
2022/08/14 06:25:18;;;;;;;5.72;4.78;;;15.00;99.90;;;;;;5128878;27;20054;-50
2022/08/14 06:27:48;;;;;;;7.68;4.80;;;15.10;99.90;;;;;;5132224;27;20039;-50
2022/08/14 06:30:18;;;;;;;7.25;5.10;;;15.20;99.90;;;;;;5135237;27;20047;-50
2022/08/14 06:32:46;;;;;;;6.82;4.55;;;15.40;99.90;;;;;;5119155;27;20048;-50
2022/08/14 06:35:22;;;;;;;6.93;4.80;;;15.40;99.90;;;;;;5115929;27;20063;-49
2022/08/14 06:37:50;;;;;;;6.78;4.30;;;15.60;99.90;;;;;;5114909;28;20054;-50
2022/08/14 06:40:22;;;;;;;8.10;4.82;;;15.80;99.90;;;;;;5115358;27;20039;-50
2022/08/14 06:42:55;;;;;;;6.03;4.75;;;15.90;99.90;;;;;;5108232;27;20047;-50
2022/08/14 06:45:25;;;;;;;5.10;4.20;;;16.10;99.90;;;;;;5132739;27;20044;-51
2022/08/14 06:47:53;;;;;;;6.65;4.40;;;16.10;99.90;;;;;;5131310;27;20035;-52
2022/08/14 06:50:22;;;;;;;4.88;4.45;;;16.30;99.90;;;;;;5126037;27;20054;-51
2022/08/14 06:52:54;;;;;;;7.55;4.07;;;16.40;99.90;;;;;;5135201;27;20135;-51
2022/08/14 06:55:21;;;;;;;7.55;4.78;;;16.50;99.90;;;;;;5135036;27;20061;-52
2022/08/14 06:57:54;;;;;;;4.95;4.22;;;16.70;99.90;;;;;;5125377;27;20131;-54
2022/08/14 07:00:23;;;;;;;4.72;3.90;;;16.80;99.90;;;;;;5123984;27;20043;-53
2022/08/14 07:05:46;;;;;;;5.55;4.18;;;17.10;99.90;;;;;;5135021;27;20451;-53
2022/08/14 07:08:29;;;;;;;4.53;4.10;;;17.40;99.90;;;;;;5125004;27;20040;-53
2022/08/14 07:10:59;;;;;;;5.85;4.40;;;17.60;99.90;;;;;;5132590;27;20395;-54
2022/08/14 07:13:27;;;;;;;7.00;3.90;;;17.70;99.90;;;;;;5134226;27;20147;-54
2022/08/14 07:15:57;;;;;;;6.85;4.57;;;17.80;99.90;;;;;;5129825;27;20046;-54
2022/08/14 07:18:29;;;;;;;5.65;4.20;;;17.90;99.90;;;;;;5127789;27;20073;-53
2022/08/14 07:21:00;;;;;;;5.38;4.00;;;18.00;99.90;;;;;;5133995;27;20099;-52
2022/08/14 07:23:27;;;;;;;5.35;4.38;;;18.10;99.90;;;;;;5131145;27;20050;-51
2022/08/14 07:25:58;;;;;;;4.00;3.60;;;18.30;99.90;;;;;;5125580;27;20533;-52
2022/08/14 07:28:33;;;;;;;4.63;3.60;;;18.40;99.90;;;;;;5134132;27;20043;-50
2022/08/14 07:31:05;;;;;;;4.70;4.20;;;18.50;99.90;;;;;;5125047;27;20047;-50
2022/08/14 07:33:40;;;;;;;5.78;3.90;;;18.70;99.90;;;;;;5121796;27;20043;-52
2022/08/14 07:36:13;;;;;;;3.92;3.60;;;18.70;99.90;;;;;;5134036;27;20596;-51
2022/08/14 07:38:57;;;;;;;4.05;3.65;;;18.90;99.90;;;;;;5134031;27;20411;-53
2022/08/14 07:41:24;;;;;;;5.13;3.65;;;19.20;99.90;;;;;;5124055;27;20038;-49
2022/08/14 07:44:01;;;;;;;4.30;3.90;;;19.50;99.90;;;;;;5125016;27;20035;-51
2022/08/14 07:46:47;;;;;;;5.45;3.92;;;19.60;99.90;;;;;;5133920;27;20246;-50
2022/08/14 07:49:15;;;;;;;4.85;3.95;;;19.80;99.90;;;;;;5129306;27;20035;-49
2022/08/14 07:51:43;;;;;;;6.68;3.55;;;19.80;99.90;;;;;;5121222;27;20407;-49
2022/08/14 07:54:11;;;;;;;6.28;3.70;;;19.90;99.90;;;;;;5092932;28;20404;-49
2022/08/14 07:56:42;;;;;;;5.47;3.85;;;20.00;99.90;;;;;;5092698;28;20043;-50
2022/08/14 07:59:16;;;;;;;4.50;3.60;;;20.10;99.90;;;;;;5118581;27;20043;-54
2022/08/14 08:01:44;;;;;;;6.53;3.40;;;20.10;99.90;;;;;;5129380;27;20065;-49
2022/08/14 08:04:21;;;;;;;4.88;3.50;;;20.30;99.90;;;;;;5133642;27;20613;-50
2022/08/14 08:06:51;;;;;;;3.75;3.38;;;20.60;99.90;;;;;;5127812;27;20048;-49
2022/08/14 08:09:23;;;;;;;3.95;3.30;;;20.70;99.90;;;;;;5124760;27;20046;-50
2022/08/14 08:12:00;;;;;;;4.15;3.03;;;20.80;99.90;;;;;;5132839;27;20050;-49
2022/08/14 08:14:34;;;;;;;5.70;3.97;;;21.00;99.90;;;;;;5133467;27;20050;-49
2022/08/14 08:17:22;;;;;;;8.55;3.55;;;21.00;99.90;;;;;;5125848;27;20097;-49
2022/08/14 08:19:49;;;;;;;3.47;3.17;;;21.10;99.90;;;;;;5130049;27;20074;-51
2022/08/14 08:22:18;;;;;;;5.05;4.05;;;21.20;99.90;;;;;;5133153;27;20548;-50
2022/08/14 08:24:45;;;;;;;5.47;3.40;;;21.40;99.90;;;;;;5122372;27;20040;-50
2022/08/14 08:27:17;;;;;;;3.97;3.50;;;21.40;99.90;;;;;;5124076;27;20035;-49
2022/08/14 08:29:44;;;;;;;4.35;3.42;;;21.50;99.90;;;;;;5132927;27;20043;-50
2022/08/14 08:32:17;;;;;;;3.67;3.38;;;21.70;99.90;;;;;;5128784;27;20508;-49
2022/08/14 08:34:45;;;;;;;3.95;3.60;;;22.00;99.90;;;;;;5113688;27;20047;-51
2022/08/14 08:37:13;;;;;;;3.30;3.00;;;22.00;99.90;;;;;;5111297;28;20040;-49
2022/08/14 08:39:45;;;;;;;4.00;3.50;;;22.10;99.90;;;;;;5112243;28;20051;-49
2022/08/14 08:42:31;;;;;;;3.50;3.20;;;22.20;99.90;;;;;;5117810;27;20118;-52
2022/08/14 08:45:07;;;;;;;3.78;3.20;;;22.40;99.90;;;;;;5122834;27;20039;-49
2022/08/14 08:47:41;;;;;;;10.60;7.43;;;22.60;99.90;;;;;;5132673;27;20541;-49
2022/08/14 08:50:29;;;;;;;8.32;5.82;;;22.60;99.70;;;;;;5127514;27;20360;-51
2022/08/14 08:52:59;;;;;;;3.95;3.45;;;22.70;99.70;;;;;;5116330;27;20058;-49
2022/08/14 08:55:40;;;;;;;3.20;2.90;;;23.00;99.20;;;;;;5108813;28;20047;-50
2022/08/14 08:58:10;;;;;;;4.22;3.17;;;23.30;98.70;;;;;;5109298;28;20051;-50
2022/08/14 09:00:47;;;;;;;3.80;3.40;;;23.30;98.90;;;;;;5115253;27;20047;-49
2022/08/14 09:03:18;;;;;;;4.53;3.17;;;23.20;98.50;;;;;;5111088;28;20795;-53
2022/08/14 09:05:56;;;;;;;3.97;3.58;;;23.40;98.60;;;;;;5091644;28;20131;-50
2022/08/14 09:08:29;;;;;;;4.18;3.40;;;23.50;99.10;;;;;;5096147;28;20092;-52
2022/08/14 09:11:01;;;;;;;3.28;2.92;;;23.60;98.40;;;;;;5121162;27;20051;-50
2022/08/14 09:13:51;;;;;;;6.03;3.40;;;23.80;98.50;;;;;;5132654;27;20039;-50
2022/08/14 09:16:24;;;;;;;3.83;3.30;;;23.80;97.50;;;;;;5132368;27;20051;-50
2022/08/14 09:18:52;;;;;;;5.40;3.33;;;23.80;97.90;;;;;;5122183;27;20039;-51
2022/08/14 09:21:21;;;;;;;3.80;3.28;;;23.80;97.60;;;;;;5124645;27;20495;-52
2022/08/14 09:23:53;;;;;;;3.20;2.90;;;23.80;97.10;;;;;;5129487;27;20087;-52
2022/08/14 09:26:42;;;;;;;4.88;3.20;;;23.90;96.20;;;;;;5110552;28;20040;-50
2022/08/14 09:29:10;;;;;;;3.63;3.22;;;23.90;96.40;;;;;;5093523;28;20044;-53
2022/08/14 09:31:43;;;;;;;3.95;3.22;;;24.00;95.90;;;;;;5119213;28;20035;-55
2022/08/14 09:34:52;;;;;;;5.30;3.67;;;24.20;95.40;;;;;;5109494;28;20048;-51
2022/08/14 09:37:36;;;;;;;3.10;2.90;;;24.30;97.20;;;;;;5106596;28;20050;-50
2022/08/14 09:40:26;;;;;;;3.58;3.10;;;24.50;97.80;;;;;;5116825;28;20040;-50
2022/08/14 09:43:31;;;;;;;4.90;3.45;;;24.60;97.70;;;;;;5110531;28;20042;-50
2022/08/14 09:45:59;;;;;;;3.72;3.20;;;24.70;97.50;;;;;;5112658;28;20051;-54
2022/08/14 09:48:28;;;;;;;6.13;3.20;;;24.80;97.40;;;;;;5107634;28;20050;-53
2022/08/14 09:50:59;;;;;;;3.40;3.10;;;25.00;97.30;;;;;;5110772;28;20076;-50
2022/08/14 09:57:38;;;;;;;5.75;3.10;;;25.00;96.30;;;;;;5123805;27;20104;-51
2022/08/14 10:00:17;;;;;;;3.65;3.35;;;25.10;98.10;;;;;;5119134;27;20507;-51
2022/08/14 10:03:01;;;;;;;6.30;3.55;;;25.20;96.60;;;;;;5114869;28;20048;-52
2022/08/14 10:05:33;;;;;;;3.78;3.42;;;25.30;95.50;;;;;;5112282;28;20110;-53
2022/08/14 10:08:16;;;;;;;3.72;3.28;;;25.50;96.60;;;;;;5111974;28;20043;-52
2022/08/14 10:10:51;;;;;;;4.90;3.47;;;25.40;95.90;;;;;;5128401;28;20051;-51
2022/08/14 10:13:29;;;;;;;5.82;3.28;;;25.30;96.40;;;;;;5099406;28;20048;-50
2022/08/14 10:16:15;;;;;;;3.55;3.25;;;25.40;97.00;;;;;;5110995;28;20035;-50
2022/08/14 10:19:04;;;;;;;4.70;3.45;;;25.50;97.40;;;;;;5121030;28;20135;-51
2022/08/14 10:21:34;;;;;;;4.78;3.10;;;25.60;96.10;;;;;;5113468;27;20047;-51
2022/08/14 10:24:25;;;;;;;5.38;3.10;;;25.70;96.10;;;;;;5110787;27;20036;-50
2022/08/14 10:27:03;;;;;;;3.75;3.20;;;25.60;96.20;;;;;;5115998;27;20135;-51
2022/08/14 10:29:31;;;;;;;;;;;25.70;95.50;;;;;;5120289;27;20035;-51
2022/08/14 10:32:00;;;;;;;6.40;3.47;;;25.70;94.80;;;;;;5115165;27;19927;-50
2022/08/14 10:34:33;;;;;;;3.80;3.15;;;25.80;95.00;;;;;;5120946;27;20522;-51
2022/08/14 10:37:12;;;;;;;4.25;3.70;;;25.90;93.90;;;;;;5125934;27;20463;-50
2022/08/14 10:39:41;;;;;;;4.03;3.00;;;26.00;95.00;;;;;;5109390;27;20043;-51
2022/08/14 10:42:36;;;;;;;4.72;3.05;;;26.10;95.10;;;;;;5116434;27;20488;-50
2022/08/14 10:45:19;;;;;;;3.28;2.80;;;26.20;94.10;;;;;;5125910;27;20067;-52
2022/08/14 10:47:48;;;;;;;8.85;2.65;;;26.20;92.80;;;;;;5130827;27;20499;-50
2022/08/14 10:50:40;;;;;;;3.08;2.72;;;26.50;93.60;;;;;;5123741;27;20430;-51
2022/08/14 10:53:08;;;;;;;5.47;2.88;;;26.60;93.30;;;;;;5120001;27;20049;-53
2022/08/14 10:55:38;;;;;;;3.20;2.90;;;26.80;92.80;;;;;;5119075;27;20572;-53
2022/08/14 10:58:12;;;;;;;3.20;2.90;;;26.90;93.10;;;;;;5107551;27;20043;-52
2022/08/14 11:00:52;;;;;;;5.18;3.28;;;27.00;93.80;;;;;;5123613;27;20101;-50
2022/08/14 11:03:24;;;;;;;4.30;3.25;;;27.10;92.20;;;;;;5114640;27;20049;-53
2022/08/14 11:06:15;;;;;;;2.90;2.63;;;27.10;91.30;;;;;;5125749;27;20036;-50
2022/08/14 11:08:41;;;;;;;3.15;2.85;;;27.10;91.80;;;;;;5120948;27;20043;-51
2022/08/14 11:11:11;;;;;;;6.80;2.80;;;27.30;91.90;;;;;;5123819;27;20039;-51
2022/08/14 11:13:42;;;;;;;;;;;27.20;91.20;;;;;;5126314;27;20036;-51
2022/08/14 11:16:10;;;;;;;3.22;2.47;;;27.20;90.10;;;;;;5124429;27;19926;-51
2022/08/14 11:18:37;;;;;;;4.18;2.40;;;27.20;90.20;;;;;;5125217;27;20057;-53
2022/08/14 11:21:07;;;;;;;3.35;2.35;;;27.10;87.60;;;;;;5124707;27;20421;-52
2022/08/14 11:23:38;;;;;;;2.17;1.90;;;27.20;87.00;;;;;;5127213;27;20096;-53
2022/08/14 11:26:11;;;;;;;1.75;1.65;;;27.20;86.10;;;;;;5122285;27;20067;-52
2022/08/14 11:28:43;;;;;;;3.78;1.90;;;27.20;77.90;;;;;;5119498;27;20039;-52
2022/08/14 11:31:16;;;;;;;1.75;1.60;;;27.40;79.30;;;;;;5109939;27;20134;-51
2022/08/14 11:33:47;;;;;;;5.03;2.03;;;27.50;76.30;;;;;;5122983;27;20506;-51
2022/08/14 11:36:14;;;;;;;1.67;1.50;;;27.70;76.10;;;;;;5106261;28;20530;-51
2022/08/14 11:38:45;;;;;;;2.42;1.50;;;27.60;76.30;;;;;;5112933;28;20075;-51
2022/08/14 11:41:13;;;;;;;2.63;1.50;;;27.70;71.00;;;;;;5104658;27;20043;-51
2022/08/14 11:43:48;;;;;;;1.58;1.48;;;27.70;71.50;;;;;;5110834;27;20044;-51
2022/08/14 11:46:25;;;;;;;1.52;1.38;;;27.90;69.70;;;;;;5122075;27;20118;-52
2022/08/14 11:49:03;;;;;;;1.73;1.45;;;28.10;68.70;;;;;;5114241;27;20090;-52
2022/08/14 11:51:33;;;;;;;2.53;1.70;;;28.10;69.70;;;;;;5111258;27;20115;-56
2022/08/14 11:54:18;;;;;;;1.70;1.60;;;28.40;68.90;;;;;;5111860;27;20500;-52
2022/08/14 11:56:59;;;;;;;1.33;1.23;;;28.40;69.90;;;;;;5114043;27;20040;-53
2022/08/14 11:59:28;;;;;;;1.77;1.52;;;28.60;70.10;;;;;;5111231;27;20047;-55
2022/08/14 12:02:09;;;;;;;1.90;1.65;;;28.70;69.80;;;;;;5111944;27;20255;-51
2022/08/14 12:04:56;;;;;;;2.00;1.75;;;28.80;70.70;;;;;;5114905;27;20090;-51
2022/08/14 12:07:23;;;;;;;1.60;1.50;;;28.90;72.60;;;;;;5113353;27;20031;-50
2022/08/14 12:09:51;;;;;;;;;;;29.10;68.10;;;;;;5110730;27;20040;-50
2022/08/14 12:12:24;;;;;;;1.85;1.75;;;29.10;67.50;;;;;;5112857;27;20471;-49
2022/08/14 12:15:03;;;;;;;1.55;1.42;;;29.10;66.20;;;;;;5105045;27;20473;-49
2022/08/14 12:17:42;;;;;;;1.60;1.48;;;29.10;64.10;;;;;;5119804;27;20035;-54
2022/08/14 12:20:15;;;;;;;2.17;1.70;;;29.10;64.80;;;;;;5110245;27;20046;-49
2022/08/14 12:22:59;;;;;;;1.83;1.40;;;29.10;62.00;;;;;;5114747;27;20043;-50
2022/08/14 12:25:26;;;;;;;1.55;1.45;;;29.20;62.80;;;;;;5118215;27;20492;-50
2022/08/14 12:27:56;;;;;;;1.10;1.00;;;29.30;62.20;;;;;;5121168;27;20085;-50
2022/08/14 12:30:38;;;;;;;1.65;1.10;;;29.40;61.60;;;;;;5123677;27;20035;-49
2022/08/14 12:33:38;;;;;;;2.25;1.15;;;29.40;53.90;;;;;;5123142;27;20031;-49
2022/08/14 12:36:19;;;;;;;1.10;1.00;;;29.50;56.90;;;;;;5105227;27;20060;-49
2022/08/14 12:38:49;;;;;;;1.88;1.10;;;29.70;56.10;;;;;;5125185;27;20039;-52
2022/08/14 12:41:22;;;;;;;1.40;1.30;;;29.80;57.70;;;;;;5123447;27;20070;-51
2022/08/14 12:44:02;;;;;;;1.45;1.35;;;30.00;58.50;;;;;;5125661;27;20085;-50
2022/08/14 12:46:32;;;;;;;1.55;1.45;;;30.00;59.10;;;;;;5119788;27;20035;-53
2022/08/14 12:49:08;;;;;;;3.50;1.50;;;30.10;59.40;;;;;;5126622;27;20479;-48
2022/08/14 12:51:34;;;;;;;1.35;1.20;;;30.20;58.40;;;;;;5111824;27;20038;-49
2022/08/14 12:54:14;;;;;;;1.83;1.02;;;30.10;54.70;;;;;;5111637;27;20050;-49
2022/08/14 12:57:06;;;;;;;1.45;1.20;;;30.20;52.50;;;;;;5114093;27;20035;-50
2022/08/14 12:59:35;;;;;;;1.13;1.02;;;30.20;53.90;;;;;;5115403;27;20042;-49
2022/08/14 13:02:22;;;;;;;1.45;1.30;;;30.00;54.00;;;;;;5119972;27;20036;-50
2022/08/14 13:04:56;;;;;;;2.13;1.92;;;29.80;53.20;;;;;;5107351;27;20489;-53
2022/08/14 13:07:26;;;;;;;4.40;1.40;;;29.80;54.50;;;;;;5110679;27;20059;-50
2022/08/14 13:09:59;;;;;;;1.42;1.13;;;30.00;52.70;;;;;;5119573;27;20096;-49
2022/08/14 13:12:27;;;;;;;3.35;1.20;;;30.20;52.10;;;;;;5119754;27;20035;-50
2022/08/14 13:15:07;;;;;;;1.63;1.00;;;30.30;53.00;;;;;;5125165;27;20052;-50
2022/08/14 13:17:45;;;;;;;1.98;1.48;;;30.60;53.70;;;;;;5122443;27;20047;-49
2022/08/14 13:20:20;;;;;;;1.63;1.50;;;30.60;54.60;;;;;;5106427;27;20075;-52
2022/08/14 13:22:53;;;;;;;1.65;1.40;;;30.50;53.50;;;;;;5114478;27;20677;-48
2022/08/14 13:25:26;;;;;;;1.58;1.40;;;30.60;54.50;;;;;;5111048;27;20036;-49
2022/08/14 13:27:57;;;;;;;1.83;1.60;;;30.70;54.20;;;;;;5115026;28;20046;-51
2022/08/14 13:30:26;;;;;;;1.60;1.50;;;30.80;54.80;;;;;;5114172;28;20070;-48
2022/08/14 13:32:54;;;;;;;3.03;1.63;;;30.60;53.80;;;;;;5115537;27;20400;-49
2022/08/14 13:35:24;;;;;;;1.63;1.52;;;30.60;54.30;;;;;;5115200;28;20043;-50
2022/08/14 13:37:52;;;;;;;4.07;1.85;;;30.70;55.60;;;;;;5119794;28;20066;-50
2022/08/14 13:40:21;;;;;;;2.35;1.50;;;30.80;55.20;;;;;;5119181;28;20035;-50
2022/08/14 13:42:54;;;;;;;1.50;1.40;;;30.90;55.60;;;;;;5122469;27;20065;-48
2022/08/14 13:45:25;;;;;;;2.42;1.70;;;30.80;54.10;;;;;;5123920;28;20070;-50
2022/08/14 13:48:14;;;;;;;2.28;1.98;;;31.00;54.60;;;;;;5104771;28;20445;-48
2022/08/14 13:51:05;;;;;;;1.77;1.67;;;30.70;55.40;;;;;;5120321;28;20561;-50
2022/08/14 13:53:43;;;;;;;2.22;1.70;;;30.70;55.10;;;;;;5121161;27;20488;-49